Time;durP1;ratioP1;P1;durP2;ratioP2;P2;SDS_P1;SDS_P2;PMS_P1;PMS_P2;Temp;Humidity;BMP_temperature;BMP_pressure;BME280_temperature;BME280_humidity;BME280_pressure;Samples;Min_cycle;Max_cycle;Signal;HPM_P1;HPM_P2
2023/03/17 00:00:18;;;;;;;9.20;3.03;;;8.30;99.30;;;;;;5035172;28;20026;-67
2023/03/17 00:02:45;;;;;;;7.95;3.40;;;8.40;99.50;;;;;;5034383;28;20498;-67
2023/03/17 00:05:23;;;;;;;6.40;2.70;;;8.40;99.50;;;;;;5042157;28;20109;-68
2023/03/17 00:07:51;;;;;;;6.80;2.90;;;8.30;99.70;;;;;;5035116;28;20041;-67
2023/03/17 00:10:21;;;;;;;6.20;2.88;;;8.50;99.90;;;;;;5016841;28;20025;-67
2023/03/17 00:12:49;;;;;;;7.68;3.28;;;8.40;99.40;;;;;;5033969;28;20032;-67
2023/03/17 00:15:16;;;;;;;11.60;5.32;;;8.50;99.90;;;;;;5034545;28;20026;-67
2023/03/17 00:17:43;;;;;;;10.77;4.78;;;8.60;99.90;;;;;;5034636;28;20501;-67
2023/03/17 00:20:22;;;;;;;12.20;5.63;;;8.60;99.90;;;;;;5035006;28;20478;-66
2023/03/17 00:22:49;;;;;;;10.55;5.50;;;8.50;99.90;;;;;;5017023;28;20553;-67
2023/03/17 00:25:26;;;;;;;11.73;6.45;;;8.20;99.90;;;;;;5015330;28;20033;-67
2023/03/17 00:27:52;;;;;;;14.05;5.43;;;8.20;99.90;;;;;;5033858;28;20389;-67
2023/03/17 00:30:20;;;;;;;;;;;8.20;99.90;;;;;;5034138;28;20025;-66
2023/03/17 00:32:46;;;;;;;12.82;6.13;;;8.20;99.90;;;;;;5033654;28;19909;-67
2023/03/17 00:35:20;;;;;;;12.10;5.68;;;8.20;99.90;;;;;;5033601;28;20029;-67
2023/03/17 00:37:46;;;;;;;12.68;6.20;;;8.20;99.90;;;;;;5016554;28;20410;-67
2023/03/17 00:40:29;;;;;;;12.43;5.75;;;8.20;99.90;;;;;;5034325;28;20517;-68
2023/03/17 00:42:57;;;;;;;13.35;5.80;;;8.10;99.90;;;;;;5033861;28;20034;-66
2023/03/17 00:45:24;;;;;;;10.35;5.55;;;8.00;99.90;;;;;;5034373;28;20021;-67
2023/03/17 00:47:52;;;;;;;11.13;5.32;;;7.80;99.90;;;;;;5033246;28;20037;-68
2023/03/17 00:50:24;;;;;;;10.82;5.53;;;7.80;99.90;;;;;;5015329;28;20029;-67
2023/03/17 00:52:51;;;;;;;10.23;5.20;;;7.70;99.90;;;;;;5015881;28;20040;-67
2023/03/17 00:55:19;;;;;;;9.95;4.68;;;7.70;99.90;;;;;;5033192;28;20386;-69
2023/03/17 00:57:47;;;;;;;5.97;3.15;;;7.70;99.90;;;;;;5015452;28;20029;-67
2023/03/17 01:00:19;;;;;;;7.95;3.50;;;7.70;99.90;;;;;;5033098;28;20024;-67
2023/03/17 01:02:46;;;;;;;4.80;3.10;;;7.70;99.90;;;;;;5015612;28;20024;-66
2023/03/17 01:05:12;;;;;;;8.30;3.40;;;7.80;99.90;;;;;;5033002;28;20109;-67
2023/03/17 01:07:39;;;;;;;7.65;3.67;;;7.70;99.90;;;;;;5033074;28;20041;-67
2023/03/17 01:10:31;;;;;;;;;;;7.70;99.90;;;;;;5033704;28;20044;-66
2023/03/17 01:12:58;;;;;;;10.32;3.33;;;7.80;99.90;;;;;;5029400;28;19912;-67
2023/03/17 01:15:27;;;;;;;7.20;3.03;;;7.70;99.90;;;;;;5033503;28;20030;-67
2023/03/17 01:17:53;;;;;;;6.47;3.30;;;7.70;99.90;;;;;;5015434;28;20026;-67
2023/03/17 01:20:25;;;;;;;6.43;3.37;;;7.70;99.90;;;;;;5033029;28;20088;-66
2023/03/17 01:22:51;;;;;;;5.90;3.13;;;7.70;99.90;;;;;;5033132;28;20021;-66
2023/03/17 01:25:17;;;;;;;5.45;3.00;;;7.60;99.90;;;;;;5033368;28;20018;-67
2023/03/17 01:27:45;;;;;;;5.50;3.22;;;7.70;99.90;;;;;;5015439;28;20025;-67
2023/03/17 01:30:36;;;;;;;7.72;3.38;;;7.60;99.90;;;;;;5033088;28;20079;-67
2023/03/17 01:33:02;;;;;;;4.55;2.97;;;7.70;99.90;;;;;;5033706;28;20022;-67
2023/03/17 01:35:29;;;;;;;5.25;3.10;;;7.70;99.90;;;;;;5033416;28;20364;-66
2023/03/17 01:37:56;;;;;;;8.38;2.78;;;7.70;99.90;;;;;;5018406;28;20123;-67
2023/03/17 01:40:31;;;;;;;6.95;4.03;;;7.70;99.90;;;;;;5037578;28;20025;-66
2023/03/17 01:43:07;;;;;;;7.28;3.80;;;7.80;99.90;;;;;;5037992;28;20497;-67
2023/03/17 01:46:26;;;;;;;7.78;3.78;;;7.80;99.90;;;;;;5019721;28;20489;-67
2023/03/17 01:49:23;;;;;;;6.80;4.18;;;8.10;99.90;;;;;;4938488;29;20094;-66
2023/03/17 01:51:57;;;;;;;9.65;4.50;;;8.10;99.90;;;;;;4937065;29;20050;-67
2023/03/17 01:54:41;;;;;;;11.40;5.40;;;8.00;99.90;;;;;;4937319;29;20036;-67
2023/03/17 01:57:31;;;;;;;9.73;5.13;;;7.90;99.90;;;;;;4937526;29;20091;-67
2023/03/17 02:00:08;;;;;;;9.23;5.10;;;7.90;99.90;;;;;;4928823;29;20043;-67
2023/03/17 02:02:36;;;;;;;8.68;4.07;;;7.80;99.90;;;;;;4937174;29;20080;-67
2023/03/17 02:05:08;;;;;;;9.57;4.60;;;7.50;99.90;;;;;;4936905;29;20055;-67
2023/03/17 02:07:34;;;;;;;8.23;4.53;;;7.40;99.90;;;;;;4921269;29;20110;-67
2023/03/17 02:10:01;;;;;;;8.10;4.90;;;7.30;99.90;;;;;;4937079;29;20071;-67
2023/03/17 02:12:29;;;;;;;9.13;4.72;;;7.30;99.90;;;;;;4937253;29;20775;-66
2023/03/17 02:14:56;;;;;;;8.68;4.45;;;7.50;99.90;;;;;;4937756;29;20031;-68
2023/03/17 02:17:23;;;;;;;8.88;4.57;;;7.50;99.90;;;;;;4921881;29;20039;-66
2023/03/17 02:19:50;;;;;;;10.13;4.47;;;7.60;99.90;;;;;;4921301;29;20031;-67
2023/03/17 02:22:17;;;;;;;9.80;4.22;;;7.50;99.90;;;;;;4937190;29;20027;-67
2023/03/17 02:24:44;;;;;;;11.00;4.78;;;7.50;99.90;;;;;;4987140;28;20105;-67
2023/03/17 02:27:18;;;;;;;10.75;4.30;;;7.30;99.90;;;;;;5016458;28;20084;-67
2023/03/17 02:29:47;;;;;;;11.63;4.15;;;7.30;99.90;;;;;;5016549;28;20178;-66
2023/03/17 02:32:16;;;;;;;11.63;5.00;;;7.20;99.90;;;;;;4998393;28;20030;-67
2023/03/17 02:34:43;;;;;;;6.60;4.00;;;7.20;99.90;;;;;;5016143;28;20386;-67
2023/03/17 02:37:09;;;;;;;9.57;4.53;;;7.20;99.90;;;;;;5024489;28;20505;-68
2023/03/17 02:39:35;;;;;;;7.82;4.22;;;7.20;99.90;;;;;;5036003;28;20029;-68
2023/03/17 02:42:02;;;;;;;7.18;3.90;;;7.30;99.90;;;;;;5035958;28;20108;-66
2023/03/17 02:44:27;;;;;;;10.52;4.40;;;7.20;99.90;;;;;;5018507;28;20029;-66
2023/03/17 02:46:53;;;;;;;9.27;4.13;;;7.20;99.90;;;;;;5036048;28;20082;-67
2023/03/17 02:49:19;;;;;;;7.43;4.57;;;7.20;99.90;;;;;;5034950;28;20067;-67
2023/03/17 02:51:45;;;;;;;6.72;3.70;;;7.00;99.90;;;;;;5035797;28;20033;-66
2023/03/17 02:54:10;;;;;;;10.67;4.57;;;6.80;99.90;;;;;;5018072;28;20501;-67
2023/03/17 02:56:37;;;;;;;11.65;4.43;;;6.70;99.90;;;;;;5052214;28;20034;-67
2023/03/17 02:59:03;;;;;;;8.75;4.35;;;6.60;99.90;;;;;;5040978;28;20425;-67
2023/03/17 03:01:29;;;;;;;9.27;4.80;;;6.70;99.90;;;;;;5020443;28;20028;-67
2023/03/17 03:03:55;;;;;;;;;;;6.90;99.90;;;;;;5038057;28;20095;-67
2023/03/17 03:06:22;;;;;;;11.30;4.57;;;6.90;99.90;;;;;;5035229;28;20358;-66
2023/03/17 03:08:48;;;;;;;8.75;4.50;;;6.80;99.90;;;;;;5017158;28;20474;-67
2023/03/17 03:11:14;;;;;;;13.77;5.05;;;6.80;99.90;;;;;;5035268;28;20101;-66
2023/03/17 03:13:40;;;;;;;8.17;4.33;;;6.70;99.90;;;;;;5035975;28;20450;-67
2023/03/17 03:16:06;;;;;;;12.43;4.88;;;6.60;99.90;;;;;;5035832;28;20047;-67
2023/03/17 03:18:31;;;;;;;10.82;4.38;;;6.40;99.90;;;;;;5035026;28;20080;-65
2023/03/17 03:20:57;;;;;;;14.13;5.10;;;6.40;99.90;;;;;;5017417;28;20470;-67
2023/03/17 03:23:23;;;;;;;8.60;4.53;;;6.40;99.90;;;;;;5035214;28;20045;-66
2023/03/17 03:25:48;;;;;;;8.13;4.60;;;6.30;99.90;;;;;;5037205;28;20509;-68
2023/03/17 03:28:14;;;;;;;9.20;4.53;;;6.30;99.90;;;;;;5037392;28;20036;-67
2023/03/17 03:30:40;;;;;;;9.73;4.87;;;6.30;99.90;;;;;;5036114;28;20032;-65
2023/03/17 03:33:06;;;;;;;9.20;4.57;;;6.30;99.90;;;;;;5035920;28;20028;-67
2023/03/17 03:35:33;;;;;;;7.35;4.35;;;6.30;99.90;;;;;;5035037;28;20398;-68
2023/03/17 03:37:59;;;;;;;;;;;6.30;99.90;;;;;;5017135;28;20026;-67
2023/03/17 03:40:25;;;;;;;8.13;4.30;;;6.30;99.90;;;;;;5016748;28;19911;-65
2023/03/17 03:42:51;;;;;;;7.72;4.07;;;6.40;99.90;;;;;;5016707;28;20029;-65
2023/03/17 03:45:17;;;;;;;7.13;4.17;;;6.40;99.90;;;;;;5034522;28;20017;-65
2023/03/17 03:47:42;;;;;;;8.53;4.40;;;6.40;99.90;;;;;;5034093;28;20083;-67
2023/03/17 03:50:09;;;;;;;6.40;3.67;;;6.40;99.90;;;;;;5016776;28;20061;-66
2023/03/17 03:52:35;;;;;;;7.18;4.00;;;6.30;99.90;;;;;;5034155;28;20361;-67
2023/03/17 03:55:01;;;;;;;8.82;3.92;;;6.30;99.90;;;;;;5034326;28;20056;-66
2023/03/17 03:57:27;;;;;;;7.60;3.80;;;6.20;99.90;;;;;;5035033;28;20034;-66
2023/03/17 03:59:52;;;;;;;5.70;3.35;;;6.20;99.90;;;;;;5018028;28;20029;-67
2023/03/17 04:02:18;;;;;;;6.47;3.40;;;6.20;99.90;;;;;;5036494;28;20434;-67
2023/03/17 04:04:44;;;;;;;7.27;3.57;;;6.20;99.90;;;;;;5016790;28;20072;-67
2023/03/17 04:07:09;;;;;;;6.43;3.73;;;6.20;99.90;;;;;;5016153;28;20022;-66
2023/03/17 04:09:36;;;;;;;8.33;3.80;;;6.20;99.90;;;;;;5034400;28;20060;-66
2023/03/17 04:12:02;;;;;;;7.78;3.58;;;6.20;99.90;;;;;;5016967;28;20075;-68
2023/03/17 04:14:27;;;;;;;8.18;3.83;;;6.20;99.90;;;;;;5035549;28;20037;-68
2023/03/17 04:16:53;;;;;;;6.57;3.80;;;6.20;99.90;;;;;;5034680;28;20429;-66
2023/03/17 04:19:20;;;;;;;6.73;3.60;;;6.10;99.90;;;;;;5034178;28;20163;-66
2023/03/17 04:21:46;;;;;;;6.60;3.80;;;6.00;99.90;;;;;;5034682;28;20023;-67
2023/03/17 04:24:13;;;;;;;9.40;4.35;;;6.00;99.90;;;;;;5035286;28;20087;-67
2023/03/17 04:26:40;;;;;;;9.50;4.30;;;6.00;99.90;;;;;;5016981;28;20037;-67
2023/03/17 04:29:07;;;;;;;11.35;4.15;;;6.00;99.90;;;;;;5034853;28;20025;-66
2023/03/17 04:31:36;;;;;;;7.25;4.32;;;5.90;99.90;;;;;;5016400;28;20029;-68
2023/03/17 04:34:02;;;;;;;8.05;4.40;;;5.80;99.90;;;;;;5016086;28;20032;-67
2023/03/17 04:36:27;;;;;;;9.40;5.00;;;6.00;99.90;;;;;;5033899;28;20033;-67
2023/03/17 04:38:53;;;;;;;13.23;5.97;;;6.20;99.90;;;;;;5033753;28;20497;-67
2023/03/17 04:41:20;;;;;;;10.53;4.50;;;6.20;99.90;;;;;;5033736;28;20322;-67
2023/03/17 04:43:45;;;;;;;;;;;6.10;99.90;;;;;;5034533;28;20018;-66
2023/03/17 04:46:11;;;;;;;9.23;5.05;;;6.10;99.90;;;;;;5034196;28;19912;-67
2023/03/17 04:48:37;;;;;;;10.30;4.93;;;6.10;99.90;;;;;;5053394;23;20144;-67
2023/03/17 04:51:02;;;;;;;11.17;5.30;;;6.10;99.90;;;;;;5033389;28;20022;-67
2023/03/17 04:53:28;;;;;;;9.87;5.20;;;6.00;99.90;;;;;;5033804;28;20025;-68
2023/03/17 04:55:54;;;;;;;11.53;4.93;;;6.00;99.90;;;;;;5033889;28;20248;-68
2023/03/17 04:58:20;;;;;;;9.37;5.27;;;5.80;99.90;;;;;;5033787;28;20403;-68
2023/03/17 05:00:45;;;;;;;11.07;5.05;;;5.80;99.90;;;;;;5033737;28;20419;-68
2023/03/17 05:03:11;;;;;;;10.77;4.57;;;5.70;99.90;;;;;;5013195;28;20458;-68
2023/03/17 05:05:36;;;;;;;10.57;5.10;;;5.80;99.90;;;;;;4996319;28;20022;-67
2023/03/17 05:08:02;;;;;;;11.03;4.57;;;5.60;99.90;;;;;;4996237;28;20532;-68
2023/03/17 05:10:28;;;;;;;9.07;5.43;;;5.60;99.90;;;;;;5013777;28;20280;-68
2023/03/17 05:12:53;;;;;;;8.53;5.73;;;5.60;99.90;;;;;;5014172;28;20053;-68
2023/03/17 05:15:20;;;;;;;10.10;5.47;;;5.30;99.90;;;;;;5015504;28;20087;-68
2023/03/17 05:17:45;;;;;;;8.40;4.60;;;5.30;99.90;;;;;;5014155;28;20466;-68
2023/03/17 05:20:11;;;;;;;9.60;4.77;;;5.50;99.90;;;;;;5033823;28;20101;-68
2023/03/17 05:22:37;;;;;;;9.93;4.80;;;5.50;99.90;;;;;;5022019;28;20108;-67
2023/03/17 05:25:03;;;;;;;10.17;4.67;;;5.50;99.90;;;;;;5034297;28;20083;-67
2023/03/17 05:27:30;;;;;;;8.60;4.78;;;5.50;99.90;;;;;;5035564;28;20474;-68
2023/03/17 05:29:55;;;;;;;8.75;4.35;;;5.40;99.90;;;;;;5023960;28;20053;-69
2023/03/17 05:32:22;;;;;;;8.50;4.87;;;5.20;99.90;;;;;;5023443;28;20029;-68
2023/03/17 05:34:47;;;;;;;9.45;4.68;;;5.10;99.90;;;;;;5016662;28;20542;-68
2023/03/17 05:37:13;;;;;;;7.77;4.97;;;5.10;99.90;;;;;;5031211;28;20105;-66
2023/03/17 05:39:39;;;;;;;10.80;4.87;;;5.10;99.90;;;;;;5031404;28;20025;-67
2023/03/17 05:42:05;;;;;;;9.35;4.90;;;5.00;99.90;;;;;;5024477;28;20475;-63
2023/03/17 05:44:31;;;;;;;10.30;5.28;;;5.00;99.90;;;;;;5032510;28;20038;-67
2023/03/17 05:46:58;;;;;;;9.93;5.03;;;5.00;99.90;;;;;;5032839;28;20022;-71
2023/03/17 05:49:27;;;;;;;11.23;5.35;;;5.00;99.90;;;;;;5011966;28;20084;-68
2023/03/17 05:51:54;;;;;;;13.45;5.85;;;5.00;99.90;;;;;;5013118;28;20386;-68
2023/03/17 05:54:20;;;;;;;13.93;5.47;;;5.00;99.90;;;;;;4995866;28;20041;-69
2023/03/17 05:56:46;;;;;;;7.00;5.03;;;4.90;99.90;;;;;;5013227;28;20033;-68
2023/03/17 05:59:13;;;;;;;12.93;5.77;;;4.90;99.90;;;;;;5010253;28;20401;-67
2023/03/17 06:01:39;;;;;;;14.98;5.28;;;4.80;99.90;;;;;;5012229;28;20079;-68
2023/03/17 06:04:08;;;;;;;9.73;5.10;;;4.80;99.90;;;;;;5011942;28;20033;-68
2023/03/17 06:06:34;;;;;;;8.85;5.13;;;4.80;99.90;;;;;;4995343;28;20355;-68
2023/03/17 06:09:00;;;;;;;8.20;4.90;;;4.90;99.90;;;;;;5013270;28;20026;-67
2023/03/17 06:11:25;;;;;;;8.60;4.60;;;5.10;99.90;;;;;;5017012;28;20017;-68
2023/03/17 06:13:51;;;;;;;9.30;5.20;;;5.20;99.90;;;;;;5033024;28;20061;-69
2023/03/17 06:16:17;;;;;;;10.70;5.07;;;5.30;99.90;;;;;;5015058;28;20032;-68
2023/03/17 06:18:44;;;;;;;11.35;5.55;;;5.30;99.90;;;;;;5032664;28;20025;-68
2023/03/17 06:21:10;;;;;;;8.10;5.15;;;5.30;99.90;;;;;;5032214;28;20022;-68
2023/03/17 06:23:35;;;;;;;13.98;5.45;;;5.20;99.90;;;;;;5015669;28;20108;-68
2023/03/17 06:26:01;;;;;;;10.20;5.87;;;5.20;99.90;;;;;;5035511;28;20050;-67
2023/03/17 06:28:26;;;;;;;8.53;5.10;;;5.20;99.90;;;;;;5018063;28;20060;-67
2023/03/17 06:30:52;;;;;;;10.53;5.60;;;5.30;99.90;;;;;;5018625;28;20036;-68
2023/03/17 06:33:18;;;;;;;16.10;7.10;;;5.50;99.90;;;;;;5036896;28;20410;-68
2023/03/17 06:35:43;;;;;;;11.50;6.50;;;5.50;99.90;;;;;;5037545;28;20029;-69
2023/03/17 06:38:09;;;;;;;12.33;6.07;;;5.50;99.90;;;;;;5037351;28;20033;-68
2023/03/17 06:40:35;;;;;;;11.82;5.72;;;5.50;99.90;;;;;;5019006;28;20029;-67
2023/03/17 06:43:01;;;;;;;10.73;5.28;;;5.60;99.90;;;;;;5037135;28;20609;-68
2023/03/17 06:45:27;;;;;;;14.60;5.50;;;5.60;99.90;;;;;;5019010;28;20128;-68
2023/03/17 06:47:53;;;;;;;10.98;4.97;;;5.60;99.90;;;;;;5018773;28;20049;-68
2023/03/17 06:50:19;;;;;;;7.87;3.73;;;5.70;99.90;;;;;;5036993;28;20033;-68
2023/03/17 06:52:45;;;;;;;8.10;4.15;;;5.80;99.90;;;;;;5018093;28;20025;-68
2023/03/17 06:55:10;;;;;;;5.97;3.28;;;5.90;99.90;;;;;;5035646;28;20029;-69
2023/03/17 06:57:36;;;;;;;8.10;3.77;;;6.10;99.90;;;;;;5018487;28;20033;-68
2023/03/17 07:00:05;;;;;;;9.37;4.17;;;6.10;99.90;;;;;;5019173;28;20060;-68
2023/03/17 07:02:32;;;;;;;4.32;2.67;;;6.30;99.90;;;;;;5036880;28;20029;-68
2023/03/17 07:04:59;;;;;;;5.55;2.90;;;6.40;99.90;;;;;;5036613;28;20091;-68
2023/03/17 07:07:26;;;;;;;8.27;3.80;;;6.60;99.90;;;;;;5036248;28;20021;-68
2023/03/17 07:09:51;;;;;;;;;;;6.70;99.90;;;;;;5035888;28;20014;-69
2023/03/17 07:12:17;;;;;;;6.65;2.70;;;6.80;99.90;;;;;;5034342;28;20352;-66
2023/03/17 07:14:43;;;;;;;5.30;2.97;;;7.00;99.90;;;;;;5017568;28;20334;-68
2023/03/17 07:17:13;;;;;;;5.60;3.47;;;7.10;99.90;;;;;;5034776;28;20026;-67
2023/03/17 07:19:40;;;;;;;8.88;3.00;;;7.10;99.90;;;;;;5018421;28;20029;-66
2023/03/17 07:22:06;;;;;;;6.25;3.70;;;7.10;99.90;;;;;;5036463;28;20050;-66
2023/03/17 07:24:32;;;;;;;8.40;3.17;;;7.20;99.90;;;;;;5019223;28;20092;-66
2023/03/17 07:26:57;;;;;;;5.90;3.50;;;7.30;99.90;;;;;;5036989;28;20108;-67
2023/03/17 07:29:23;;;;;;;7.77;3.87;;;7.30;99.90;;;;;;5037727;28;20030;-70
2023/03/17 07:31:49;;;;;;;7.27;3.27;;;7.40;99.90;;;;;;5038515;28;20025;-71
2023/03/17 07:34:15;;;;;;;12.45;3.92;;;7.50;99.90;;;;;;5037613;28;20037;-68
2023/03/17 07:36:41;;;;;;;9.05;3.72;;;7.50;99.90;;;;;;5018746;28;20163;-69
2023/03/17 07:39:07;;;;;;;4.93;3.37;;;7.40;99.90;;;;;;5035194;28;20060;-70
2023/03/17 07:41:33;;;;;;;5.30;3.83;;;7.50;99.90;;;;;;5035351;28;20018;-69
2023/03/17 07:43:59;;;;;;;6.00;3.38;;;7.60;99.90;;;;;;5032277;28;20033;-69
2023/03/17 07:46:25;;;;;;;11.93;4.22;;;7.80;99.90;;;;;;5034657;28;20040;-68
2023/03/17 07:48:51;;;;;;;8.93;3.80;;;8.00;99.90;;;;;;5034392;28;20057;-71
2023/03/17 07:51:20;;;;;;;10.37;3.53;;;8.20;99.90;;;;;;5034625;28;20028;-70
2023/03/17 07:53:46;;;;;;;8.30;3.60;;;8.50;99.90;;;;;;5034331;28;20439;-71
2023/03/17 07:56:12;;;;;;;5.72;3.53;;;8.60;99.90;;;;;;5017219;28;20022;-71
2023/03/17 07:58:38;;;;;;;7.22;4.00;;;8.80;99.90;;;;;;5016559;28;20029;-70
2023/03/17 08:01:04;;;;;;;;;;;9.00;99.90;;;;;;5017575;28;20029;-68
2023/03/17 08:03:30;;;;;;;5.80;3.90;;;9.10;99.90;;;;;;5014563;28;20052;-68
2023/03/17 08:05:56;;;;;;;6.33;3.30;;;9.20;99.90;;;;;;5031832;28;20033;-67
2023/03/17 08:08:26;;;;;;;7.95;4.35;;;9.30;99.90;;;;;;5034798;28;20029;-67
2023/03/17 08:10:51;;;;;;;9.32;5.63;;;9.20;99.90;;;;;;5018981;28;20033;-68
2023/03/17 08:13:17;;;;;;;9.87;4.57;;;9.30;99.90;;;;;;5038062;28;20029;-68
2023/03/17 08:15:43;;;;;;;6.82;3.92;;;9.30;99.90;;;;;;5019403;28;20175;-67
2023/03/17 08:18:09;;;;;;;7.32;4.00;;;9.30;99.90;;;;;;5038037;28;20033;-69
2023/03/17 08:20:35;;;;;;;7.45;3.60;;;9.40;99.90;;;;;;5019208;28;20025;-68
2023/03/17 08:23:02;;;;;;;6.50;3.47;;;9.50;99.90;;;;;;5017452;28;20029;-68
2023/03/17 08:25:28;;;;;;;;;;;9.70;99.90;;;;;;5017085;28;20026;-69
2023/03/17 08:27:54;;;;;;;8.23;4.43;;;9.50;99.90;;;;;;5034489;28;19905;-69
2023/03/17 08:30:20;;;;;;;6.95;3.25;;;9.40;99.90;;;;;;5016649;28;20071;-69
2023/03/17 08:32:47;;;;;;;7.07;3.53;;;9.50;99.90;;;;;;5017003;28;20029;-69
2023/03/17 08:35:17;;;;;;;5.10;3.40;;;9.60;99.90;;;;;;5034747;28;20027;-69
2023/03/17 08:37:44;;;;;;;6.35;3.45;;;9.70;99.90;;;;;;5016646;28;20036;-69
2023/03/17 08:40:14;;;;;;;5.57;3.35;;;9.50;99.90;;;;;;5016377;28;20385;-69
2023/03/17 08:42:42;;;;;;;7.53;3.40;;;9.50;99.90;;;;;;5034218;28;20466;-69
2023/03/17 08:45:08;;;;;;;5.95;3.65;;;9.60;99.90;;;;;;5034198;28;20049;-69
2023/03/17 08:47:35;;;;;;;6.53;3.85;;;9.70;99.90;;;;;;5015919;28;20504;-69
2023/03/17 08:50:01;;;;;;;;;;;9.80;99.90;;;;;;5016718;28;20033;-68
2023/03/17 08:52:27;;;;;;;9.20;3.83;;;9.80;99.90;;;;;;5015920;28;19992;-69
2023/03/17 08:54:53;;;;;;;;;;;10.00;99.90;;;;;;5016533;28;20026;-69
2023/03/17 08:57:19;;;;;;;8.82;3.70;;;10.10;99.90;;;;;;5032554;28;19905;-74
2023/03/17 08:59:46;;;;;;;8.45;4.25;;;10.10;99.90;;;;;;5018345;28;20018;-69
2023/03/17 09:02:11;;;;;;;;;;;10.30;99.90;;;;;;5017061;28;20080;-70
2023/03/17 09:04:38;;;;;;;9.27;3.83;;;10.50;99.90;;;;;;5033553;28;19905;-69
2023/03/17 09:07:05;;;;;;;10.95;4.10;;;10.70;99.90;;;;;;5015748;28;20033;-69
2023/03/17 09:09:34;;;;;;;8.95;5.07;;;10.90;99.90;;;;;;5033549;28;20497;-69
2023/03/17 09:12:01;;;;;;;10.23;4.10;;;11.10;99.90;;;;;;5033179;28;20033;-69
2023/03/17 09:14:27;;;;;;;6.18;3.40;;;12.30;99.90;;;;;;5016148;28;20028;-69
2023/03/17 09:16:54;;;;;;;8.75;3.80;;;15.20;96.50;;;;;;5015522;28;20022;-69
2023/03/17 09:19:20;;;;;;;8.23;3.80;;;18.70;89.20;;;;;;5015101;28;20083;-67
2023/03/17 09:21:46;;;;;;;5.68;3.75;;;21.20;79.00;;;;;;5011861;28;20022;-70
2023/03/17 09:24:12;;;;;;;;;;;23.10;69.90;;;;;;5013476;28;20030;-69
2023/03/17 09:26:38;;;;;;;9.38;5.70;;;25.00;64.50;;;;;;5004617;28;19905;-69
2023/03/17 09:29:04;;;;;;;;;;;26.50;59.70;;;;;;5015605;28;20026;-70
2023/03/17 09:31:30;;;;;;;5.97;4.05;;;26.90;55.80;;;;;;5032292;28;19912;-69
2023/03/17 09:33:55;;;;;;;5.43;4.13;;;26.80;54.50;;;;;;5015208;28;20037;-69
2023/03/17 09:36:21;;;;;;;9.93;4.22;;;27.00;53.60;;;;;;5014643;28;20017;-70
2023/03/17 09:38:46;;;;;;;6.15;4.10;;;27.20;51.90;;;;;;5032491;28;20130;-69
2023/03/17 09:41:15;;;;;;;4.55;3.55;;;27.00;51.80;;;;;;5033049;28;20109;-69
2023/03/17 09:44:10;;;;;;;6.32;3.83;;;26.40;51.60;;;;;;5015418;28;20029;-69
2023/03/17 09:46:53;;;;;;;7.43;4.07;;;26.10;51.70;;;;;;5032263;28;20022;-69
2023/03/17 09:49:28;;;;;;;7.88;4.07;;;25.70;53.00;;;;;;5032835;28;20397;-69
2023/03/17 09:51:55;;;;;;;6.47;3.60;;;26.80;52.00;;;;;;5032852;28;20053;-69
2023/03/17 09:54:26;;;;;;;8.45;3.83;;;28.50;51.20;;;;;;5015925;28;20037;-70
2023/03/17 09:57:28;;;;;;;6.47;4.15;;;28.60;49.20;;;;;;5015105;28;20059;-70
2023/03/17 10:00:05;;;;;;;6.38;3.78;;;28.20;49.10;;;;;;5021838;28;20036;-70
2023/03/17 10:02:33;;;;;;;6.65;4.00;;;27.10;49.90;;;;;;5022946;28;20029;-70
2023/03/17 10:05:16;;;;;;;5.85;3.70;;;27.00;50.40;;;;;;5023784;28;20483;-68
2023/03/17 10:08:05;;;;;;;7.72;4.53;;;28.00;49.90;;;;;;5023307;28;20022;-69
2023/03/17 10:10:56;;;;;;;6.15;4.15;;;28.20;48.70;;;;;;5018876;28;20036;-68
2023/03/17 10:13:21;;;;;;;9.25;4.68;;;27.70;49.10;;;;;;4998875;28;20061;-69
2023/03/17 10:15:52;;;;;;;8.07;4.30;;;27.60;49.30;;;;;;4998562;28;20061;-70
2023/03/17 10:18:23;;;;;;;6.10;4.03;;;26.90;49.40;;;;;;5035705;28;20034;-71
2023/03/17 10:21:03;;;;;;;8.15;4.57;;;26.20;49.90;;;;;;5036771;28;20096;-70
2023/03/17 10:23:33;;;;;;;7.55;4.32;;;25.20;51.00;;;;;;5016265;28;20037;-68
2023/03/17 10:26:08;;;;;;;6.32;4.07;;;25.10;51.30;;;;;;5016691;28;20026;-69
2023/03/17 10:28:37;;;;;;;9.80;4.25;;;24.00;51.80;;;;;;5016456;28;20030;-69
2023/03/17 10:31:13;;;;;;;6.38;4.25;;;23.20;53.20;;;;;;5016873;28;20026;-70
2023/03/17 10:33:39;;;;;;;5.00;3.70;;;23.30;53.20;;;;;;4998800;28;20037;-69
2023/03/17 10:36:08;;;;;;;;;;;23.30;53.20;;;;;;5016597;28;20478;-68
2023/03/17 10:38:34;;;;;;;6.93;3.88;;;22.30;54.10;;;;;;5016163;28;19916;-70
2023/03/17 10:41:05;;;;;;;7.55;3.90;;;21.70;55.20;;;;;;5014671;28;20022;-69
2023/03/17 10:43:38;;;;;;;7.00;4.28;;;21.30;56.30;;;;;;5034425;28;20029;-70
2023/03/17 10:46:06;;;;;;;5.75;3.92;;;21.20;56.10;;;;;;5035980;28;20025;-69
2023/03/17 10:48:37;;;;;;;6.88;4.38;;;21.20;56.40;;;;;;5050531;22;20025;-69
2023/03/17 10:51:10;;;;;;;6.32;4.13;;;21.40;56.20;;;;;;5064392;28;20040;-69
2023/03/17 10:53:38;;;;;;;6.35;4.25;;;21.60;56.00;;;;;;5061462;28;20024;-69
2023/03/17 10:56:20;;;;;;;7.40;3.63;;;21.80;56.40;;;;;;5062401;28;20025;-70
2023/03/17 10:58:48;;;;;;;5.13;3.72;;;23.10;55.30;;;;;;5060677;28;20143;-69
2023/03/17 11:01:26;;;;;;;6.47;4.22;;;23.00;54.70;;;;;;5046174;28;20025;-70
2023/03/17 11:03:52;;;;;;;7.63;4.30;;;23.20;54.50;;;;;;5062972;28;20014;-69
2023/03/17 11:06:19;;;;;;;6.95;3.97;;;23.20;54.20;;;;;;5053708;28;20116;-69
2023/03/17 11:08:52;;;;;;;7.38;3.72;;;22.50;54.50;;;;;;5054376;28;20035;-69
2023/03/17 11:11:25;;;;;;;6.82;4.38;;;22.00;55.50;;;;;;5054347;28;20155;-69
2023/03/17 11:14:01;;;;;;;7.40;4.65;;;21.70;56.40;;;;;;5055228;28;20029;-69
2023/03/17 11:16:27;;;;;;;7.45;4.43;;;21.50;56.70;;;;;;5055070;28;20366;-68
2023/03/17 11:18:55;;;;;;;;;;;21.00;57.50;;;;;;5055300;28;20036;-67
2023/03/17 11:21:25;;;;;;;;;;;20.40;57.90;;;;;;5056607;28;19905;-65
2023/03/17 11:24:13;;;;;;;7.22;4.10;;;20.00;58.80;;;;;;5061745;28;19915;-67
2023/03/17 11:26:47;;;;;;;5.45;3.05;;;19.60;59.70;;;;;;5060165;28;20032;-66
2023/03/17 11:29:18;;;;;;;5.63;3.00;;;18.90;60.00;;;;;;5059518;28;20039;-67
2023/03/17 11:32:21;;;;;;;4.30;3.00;;;18.70;60.90;;;;;;5062311;28;20388;-66
2023/03/17 11:35:11;;;;;;;5.25;3.08;;;18.60;61.80;;;;;;5061283;28;20104;-65
2023/03/17 11:38:03;;;;;;;8.75;3.58;;;18.50;61.90;;;;;;5066367;28;20025;-68
2023/03/17 11:41:10;;;;;;;6.60;3.42;;;18.40;62.20;;;;;;5041628;28;20115;-69
2023/03/17 11:43:36;;;;;;;6.72;3.40;;;18.30;63.10;;;;;;4955055;28;20046;-69
2023/03/17 11:46:07;;;;;;;5.20;2.73;;;18.20;63.00;;;;;;4954790;29;20134;-66
2023/03/17 11:48:48;;;;;;;11.07;3.47;;;18.00;62.90;;;;;;4955273;29;20027;-70
2023/03/17 11:51:26;;;;;;;6.13;2.80;;;18.20;63.20;;;;;;4938947;29;20035;-69
2023/03/17 11:54:08;;;;;;;8.80;3.03;;;18.20;62.90;;;;;;4954863;28;20508;-69
2023/03/17 11:56:43;;;;;;;6.25;3.22;;;18.30;62.80;;;;;;4953827;29;20027;-70
2023/03/17 11:59:38;;;;;;;6.20;2.97;;;18.20;63.30;;;;;;4955002;28;20039;-70
2023/03/17 12:02:21;;;;;;;6.90;3.38;;;18.20;62.80;;;;;;4952825;28;20039;-69
2023/03/17 12:05:21;;;;;;;5.35;3.22;;;18.20;63.30;;;;;;4955127;28;20031;-69
2023/03/17 12:07:54;;;;;;;5.50;2.30;;;18.20;63.30;;;;;;4955913;28;20035;-69
2023/03/17 12:10:22;;;;;;;6.30;2.83;;;18.20;63.20;;;;;;4938235;29;20163;-69
2023/03/17 12:13:10;;;;;;;5.43;2.70;;;17.90;63.70;;;;;;4938308;29;20035;-69
2023/03/17 12:15:46;;;;;;;6.25;2.58;;;17.90;63.30;;;;;;4938472;29;20031;-69
2023/03/17 12:18:27;;;;;;;4.97;2.90;;;17.70;64.10;;;;;;5020248;28;20564;-70
2023/03/17 12:21:00;;;;;;;8.38;3.00;;;17.80;64.80;;;;;;5058000;28;20472;-71
2023/03/17 12:23:44;;;;;;;4.95;2.65;;;17.90;64.60;;;;;;5042413;28;20051;-70
2023/03/17 12:26:34;;;;;;;4.40;2.45;;;18.00;63.90;;;;;;5048527;28;20025;-70
2023/03/17 12:29:11;;;;;;;12.10;6.80;;;18.10;64.50;;;;;;5063581;28;20040;-71
2023/03/17 12:31:45;;;;;;;;;;;18.30;64.50;;;;;;5059423;28;20041;-71
2023/03/17 12:34:17;;;;;;;7.68;2.53;;;18.50;64.50;;;;;;5036401;28;19904;-68
2023/03/17 12:36:43;;;;;;;6.05;2.80;;;18.50;64.40;;;;;;5035903;28;20025;-68
2023/03/17 12:39:13;;;;;;;;;;;18.50;64.30;;;;;;5054870;28;20024;-68
2023/03/17 12:41:58;;;;;;;5.07;2.60;;;18.50;63.80;;;;;;5054278;28;19916;-68
2023/03/17 12:44:51;;;;;;;4.38;2.80;;;18.40;64.10;;;;;;5053879;28;20017;-68
2023/03/17 12:47:51;;;;;;;4.45;2.15;;;18.40;64.50;;;;;;5053867;28;20358;-68
2023/03/17 12:50:22;;;;;;;2.72;1.80;;;18.30;63.80;;;;;;5041890;28;20033;-67
2023/03/17 12:53:26;;;;;;;4.72;2.30;;;18.30;63.40;;;;;;5076121;28;20086;-69
2023/03/17 12:55:55;;;;;;;7.60;1.65;;;18.40;63.80;;;;;;5064316;28;20039;-69
2023/03/17 12:58:49;;;;;;;5.25;2.30;;;18.60;63.90;;;;;;5047336;28;20142;-68
2023/03/17 13:01:37;;;;;;;3.47;2.00;;;18.80;63.50;;;;;;5053689;28;20017;-68
2023/03/17 13:04:22;;;;;;;5.53;2.15;;;18.70;63.00;;;;;;5055318;28;20028;-68
2023/03/17 13:07:11;;;;;;;5.47;2.33;;;18.80;63.60;;;;;;5061368;28;20025;-69
2023/03/17 13:10:34;;;;;;;4.75;2.50;;;18.90;64.10;;;;;;5053932;28;20025;-67